Time;durP1;ratioP1;P1;durP2;ratioP2;P2;SDS_P1;SDS_P2;PMS_P1;PMS_P2;Temp;Humidity;BMP_temperature;BMP_pressure;BME280_temperature;BME280_humidity;BME280_pressure;Samples;Min_cycle;Max_cycle;Signal;HPM_P1;HPM_P2
2023/04/26 00:02:27;;;;;;;4.40;4.10;;;;;;;11.97;83.28;94111.84;4940086;28;21046;-61
2023/04/26 00:04:54;;;;;;;4.20;3.78;;;;;;;11.92;83.19;94113.81;4939675;28;20699;-63
2023/04/26 00:07:23;;;;;;;4.20;3.80;;;;;;;11.79;83.92;94093.31;4940249;28;20315;-59
2023/04/26 00:09:50;;;;;;;5.07;4.68;;;;;;;11.85;83.69;94097.25;4941788;28;20201;-64
2023/04/26 00:12:17;;;;;;;5.00;4.63;;;;;;;11.85;83.87;94102.34;4941226;28;20207;-61
2023/04/26 00:14:44;;;;;;;4.50;4.20;;;;;;;11.80;83.98;94100.03;4937227;28;20976;-59
2023/04/26 00:17:12;;;;;;;6.38;4.10;;;;;;;11.71;84.14;94092.03;4935535;28;20785;-59
2023/04/26 00:19:39;;;;;;;3.50;3.30;;;;;;;11.68;83.90;94087.09;4935584;28;20201;-58
2023/04/26 00:22:07;;;;;;;4.53;4.20;;;;;;;11.64;84.00;94083.06;4938571;28;20252;-59
2023/04/26 00:24:34;;;;;;;3.85;3.55;;;;;;;11.52;84.22;94080.28;4939258;28;23617;-61
2023/04/26 00:27:07;;;;;;;3.63;3.33;;;;;;;11.45;84.58;94089.13;4939398;28;20205;-61
2023/04/26 00:29:34;;;;;;;3.92;3.63;;;;;;;11.42;84.84;94089.28;4940608;28;20208;-60
2023/04/26 00:32:01;;;;;;;3.45;3.25;;;;;;;11.32;84.77;94089.88;4938394;28;20682;-63
2023/04/26 00:34:33;;;;;;;4.15;3.85;;;;;;;11.25;84.92;94077.47;4939869;28;20316;-64
2023/04/26 00:37:00;;;;;;;4.70;4.30;;;;;;;11.17;84.71;94073.66;4939884;28;20213;-62
2023/04/26 00:39:27;;;;;;;3.60;3.25;;;;;;;11.18;84.89;94076.13;4940424;28;20298;-64
2023/04/26 00:41:53;;;;;;;4.55;4.15;;;;;;;11.17;85.01;94071.13;4941134;28;20220;-62
2023/04/26 00:44:20;;;;;;;5.20;3.85;;;;;;;11.18;84.99;94081.22;4937410;28;20224;-65
2023/04/26 00:46:48;;;;;;;4.90;3.65;;;;;;;11.19;84.76;94074.41;4933347;28;22570;-67
2023/04/26 00:49:17;;;;;;;4.22;3.92;;;;;;;11.05;85.19;94081.94;4935313;28;20819;-64
2023/04/26 00:51:46;;;;;;;3.97;3.67;;;;;;;10.93;85.59;94080.00;4940122;28;20259;-61
2023/04/26 00:54:14;;;;;;;4.22;3.80;;;;;;;10.75;86.15;94059.69;4938878;28;20225;-62
2023/04/26 00:56:42;;;;;;;4.47;4.18;;;;;;;10.96;85.80;94080.66;4936391;28;20209;-60
2023/04/26 00:59:08;;;;;;;5.88;4.28;;;;;;;11.03;85.57;94076.09;4940560;28;20241;-63
2023/04/26 01:01:36;;;;;;;4.32;4.03;;;;;;;11.07;85.30;94070.78;4941385;28;20225;-64
2023/04/26 01:04:03;;;;;;;3.88;3.55;;;;;;;11.20;85.23;94081.13;4940051;28;21474;-64
2023/04/26 01:06:34;;;;;;;4.82;3.83;;;;;;;11.13;85.14;94082.38;4941078;28;20319;-63
2023/04/26 01:09:03;;;;;;;4.10;3.70;;;;;;;11.09;85.68;94085.97;4937709;28;20304;-63
2023/04/26 01:11:32;;;;;;;7.22;4.05;;;;;;;11.01;85.42;94093.16;4939500;28;20210;-64
2023/04/26 01:13:58;;;;;;;4.65;4.30;;;;;;;10.99;85.47;94090.69;4938938;28;20757;-59
2023/04/26 01:16:27;;;;;;;4.95;4.47;;;;;;;10.96;85.37;94090.00;4939021;28;20340;-62
2023/04/26 01:18:53;;;;;;;4.07;3.78;;;;;;;11.00;85.38;94091.50;4935702;28;20349;-63
2023/04/26 01:21:21;;;;;;;5.35;4.90;;;;;;;11.01;84.96;94085.53;4938484;28;22590;-60
2023/04/26 01:23:50;;;;;;;5.55;4.43;;;;;;;11.09;85.09;94075.78;4938441;28;20601;-59
2023/04/26 01:26:17;;;;;;;4.13;3.83;;;;;;;11.11;84.66;94068.91;4937643;28;20219;-59
2023/04/26 01:28:45;;;;;;;4.10;3.80;;;;;;;10.98;84.82;94062.78;4938622;28;20249;-61
2023/04/26 01:31:12;;;;;;;3.72;3.42;;;;;;;10.84;85.55;94071.13;4937855;28;20206;-64
2023/04/26 01:33:38;;;;;;;7.40;4.30;;;;;;;10.61;86.36;94079.91;4940303;28;20225;-64
2023/04/26 01:36:08;;;;;;;5.70;5.18;;;;;;;10.61;86.60;94087.53;4939679;28;20332;-60
2023/04/26 01:38:35;;;;;;;4.28;3.90;;;;;;;10.57;86.62;94083.50;4939181;28;20339;-60
2023/04/26 01:41:03;;;;;;;8.60;5.32;;;;;;;10.50;87.22;94077.06;4941045;28;20331;-60
2023/04/26 01:43:30;;;;;;;5.30;4.45;;;;;;;10.47;86.91;94077.19;4941105;28;20377;-64
2023/04/26 01:45:57;;;;;;;4.60;4.28;;;;;;;10.45;86.85;94087.44;4939333;28;20759;-64
2023/04/26 01:48:23;;;;;;;6.93;6.22;;;;;;;10.55;86.77;94093.72;4936650;28;20293;-65
2023/04/26 01:50:50;;;;;;;7.35;5.82;;;;;;;10.74;86.44;94093.63;4940449;28;20231;-61
2023/04/26 01:53:17;;;;;;;6.53;6.03;;;;;;;10.99;85.95;94084.78;4944036;28;20307;-60
2023/04/26 01:55:43;;;;;;;5.93;5.30;;;;;;;11.14;85.06;94078.91;4943964;28;20295;-62
2023/04/26 01:58:11;;;;;;;4.53;4.18;;;;;;;11.13;85.01;94079.81;4943878;28;20299;-62
2023/04/26 02:00:38;;;;;;;5.63;5.22;;;;;;;11.04;84.97;94077.75;4945389;28;20425;-62
2023/04/26 02:03:05;;;;;;;4.70;4.10;;;;;;;11.04;84.57;94078.56;4944499;28;20311;-62
2023/04/26 02:05:32;;;;;;;5.28;4.90;;;;;;;11.10;84.32;94067.28;4941165;28;20283;-63
2023/04/26 02:07:58;;;;;;;5.38;4.88;;;;;;;11.02;84.23;94064.28;4939766;28;20291;-64
2023/04/26 02:10:25;;;;;;;5.00;4.60;;;;;;;10.85;84.24;94048.19;4942729;28;20299;-60
2023/04/26 02:12:52;;;;;;;5.57;5.07;;;;;;;10.95;83.87;94058.69;4944165;28;21202;-64
2023/04/26 02:15:20;;;;;;;8.82;5.90;;;;;;;10.95;83.61;94062.94;4943153;28;20400;-62
2023/04/26 02:17:48;;;;;;;4.68;4.38;;;;;;;10.86;83.40;94054.09;4942344;28;20208;-63
2023/04/26 02:20:15;;;;;;;6.53;5.20;;;;;;;10.76;83.46;94051.19;4941124;28;20212;-61
2023/04/26 02:22:42;;;;;;;8.05;5.60;;;;;;;10.57;84.31;94058.09;4941954;28;20319;-62
2023/04/26 02:25:10;;;;;;;8.52;5.80;;;;;;;10.46;84.52;94052.69;4942337;28;20753;-62
2023/04/26 02:27:37;;;;;;;6.60;6.05;;;;;;;10.43;84.50;94053.66;4943875;28;20694;-62
2023/04/26 02:30:04;;;;;;;6.93;6.32;;;;;;;10.60;84.12;94068.09;4941684;28;20842;-62
2023/04/26 02:32:33;;;;;;;7.20;6.50;;;;;;;10.70;83.51;94056.56;4941344;28;20654;-62
2023/04/26 02:34:59;;;;;;;6.05;5.45;;;;;;;10.81;83.35;94051.78;4943284;28;20372;-60
2023/04/26 02:37:26;;;;;;;7.32;5.82;;;;;;;10.84;83.45;94066.06;4941195;28;22116;-62
2023/04/26 02:39:53;;;;;;;6.93;5.90;;;;;;;10.79;83.23;94065.47;4941625;28;22121;-61
2023/04/26 02:42:20;;;;;;;6.30;5.03;;;;;;;10.90;83.10;94070.81;4943472;28;20319;-62
2023/04/26 02:44:46;;;;;;;6.10;5.60;;;;;;;11.00;82.54;94068.63;4942997;28;20209;-62
2023/04/26 02:47:13;;;;;;;5.72;4.90;;;;;;;11.13;81.78;94067.94;4940632;28;20213;-62
2023/04/26 02:49:41;;;;;;;5.20;4.80;;;;;;;11.21;81.44;94054.81;4942206;28;20364;-66
2023/04/26 02:52:08;;;;;;;4.55;4.15;;;;;;;11.25;81.24;94056.28;4942914;28;20312;-60
2023/04/26 02:54:35;;;;;;;6.78;4.68;;;;;;;11.36;80.17;94053.19;4941694;28;20317;-60
2023/04/26 02:57:01;;;;;;;5.60;4.38;;;;;;;11.14;79.94;94033.13;4942430;28;20803;-59
2023/04/26 02:59:28;;;;;;;4.45;4.07;;;;;;;11.13;81.19;94041.69;4941504;28;20216;-64
2023/04/26 03:01:55;;;;;;;4.93;4.45;;;;;;;11.18;80.51;94035.44;4942498;28;20329;-62
2023/04/26 03:04:22;;;;;;;6.55;3.88;;;;;;;11.13;80.31;94046.78;4943410;28;20201;-63
2023/04/26 03:06:50;;;;;;;5.57;3.95;;;;;;;11.13;80.77;94050.13;4944152;28;20323;-61
2023/04/26 03:09:16;;;;;;;5.43;4.30;;;;;;;11.09;81.04;94047.84;4942607;28;20782;-62
2023/04/26 03:11:43;;;;;;;13.18;5.97;;;;;;;11.07;81.01;94042.81;4942428;28;20208;-62
2023/04/26 03:14:10;;;;;;;7.90;5.53;;;;;;;11.02;81.34;94049.84;4942221;28;20722;-62
2023/04/26 03:16:42;;;;;;;8.82;6.50;;;;;;;11.09;81.66;94055.47;4943023;28;20296;-60
2023/04/26 03:19:08;;;;;;;7.75;6.45;;;;;;;11.13;81.69;94046.78;4943382;28;20213;-58
2023/04/26 03:21:35;;;;;;;6.88;5.85;;;;;;;11.19;81.20;94048.97;4941602;28;20213;-59
2023/04/26 03:24:04;;;;;;;6.85;6.35;;;;;;;11.17;81.05;94040.59;4943314;28;20210;-59
2023/04/26 03:26:30;;;;;;;6.25;5.47;;;;;;;11.10;81.60;94041.84;4942740;28;21142;-66
2023/04/26 03:28:57;;;;;;;7.88;6.28;;;;;;;11.08;81.77;94039.38;4943401;28;20357;-67
2023/04/26 03:31:24;;;;;;;6.50;5.90;;;;;;;11.17;81.54;94043.97;4941959;28;20698;-58
2023/04/26 03:33:51;;;;;;;7.30;6.60;;;;;;;11.16;82.15;94041.50;4941164;28;20225;-58
2023/04/26 03:36:18;;;;;;;6.30;5.80;;;;;;;11.20;81.90;94040.44;4941239;28;20689;-63
2023/04/26 03:38:45;;;;;;;6.15;5.60;;;;;;;11.22;81.75;94042.00;4943570;28;20300;-64
2023/04/26 03:41:13;;;;;;;5.80;5.30;;;;;;;11.31;81.50;94040.72;4940244;28;20728;-64
2023/04/26 03:43:40;;;;;;;5.72;5.32;;;;;;;11.37;81.22;94055.66;4943250;28;20736;-61
2023/04/26 03:46:06;;;;;;;5.43;5.05;;;;;;;11.46;80.97;94060.25;4941517;28;20832;-62
2023/04/26 03:48:33;;;;;;;5.32;4.93;;;;;;;11.67;80.34;94057.47;4941765;28;20296;-63
2023/04/26 03:51:00;;;;;;;5.95;5.40;;;;;;;11.82;79.74;94061.78;4942040;28;20362;-60
2023/04/26 03:53:26;;;;;;;5.63;5.22;;;;;;;12.03;79.49;94073.34;4941703;28;20514;-61
2023/04/26 03:55:53;;;;;;;5.45;4.82;;;;;;;12.20;79.04;94073.22;4940931;28;20222;-63
2023/04/26 03:58:21;;;;;;;6.72;5.25;;;;;;;12.30;78.60;94068.44;4941007;28;20233;-63
2023/04/26 04:00:48;;;;;;;5.53;4.88;;;;;;;12.45;77.84;94071.84;4940423;28;20292;-63
2023/04/26 04:03:15;;;;;;;10.55;8.27;;;;;;;12.55;76.96;94067.88;4940935;28;20209;-62
2023/04/26 04:05:41;;;;;;;14.38;11.80;;;;;;;12.67;76.72;94072.25;4939632;28;20766;-62
2023/04/26 04:08:08;;;;;;;7.50;6.85;;;;;;;12.76;76.55;94071.75;4940556;28;20236;-60
2023/04/26 04:10:35;;;;;;;9.90;7.10;;;;;;;12.95;75.39;94077.41;4940584;28;20296;-61
2023/04/26 04:13:02;;;;;;;10.32;9.27;;;;;;;13.01;75.62;94081.34;4942742;28;20291;-66
2023/04/26 04:15:30;;;;;;;14.23;8.18;;;;;;;13.13;75.02;94082.31;4942830;28;20239;-65
2023/04/26 04:17:57;;;;;;;10.93;7.68;;;;;;;13.32;74.55;94089.75;4940878;28;20324;-63
2023/04/26 04:20:23;;;;;;;10.05;7.18;;;;;;;13.77;72.92;94086.16;4941070;28;20295;-61
2023/04/26 04:22:50;;;;;;;13.45;9.15;;;;;;;14.25;70.33;94085.66;4939481;28;20299;-63
2023/04/26 04:25:19;;;;;;;7.35;6.60;;;;;;;14.52;69.62;94084.84;4941863;28;20286;-65
2023/04/26 04:27:46;;;;;;;6.78;5.63;;;;;;;14.78;67.95;94081.41;4940875;28;20271;-60
2023/04/26 04:30:13;;;;;;;6.72;5.88;;;;;;;15.10;67.22;94076.72;4941271;28;20213;-65
2023/04/26 04:32:43;;;;;;;6.03;5.53;;;;;;;15.50;66.32;94072.31;4940829;28;20305;-64
2023/04/26 04:35:10;;;;;;;6.63;5.28;;;;;;;15.88;64.61;94084.22;4942195;28;20244;-66
2023/04/26 04:37:37;;;;;;;9.45;4.82;;;;;;;16.40;63.59;94086.50;4941116;28;20296;-62
2023/04/26 04:40:05;;;;;;;8.43;5.18;;;;;;;17.13;61.37;94080.31;4941495;28;20295;-63
2023/04/26 04:42:32;;;;;;;8.85;7.15;;;;;;;17.71;58.98;94083.66;4940761;28;20288;-64
2023/04/26 04:44:59;;;;;;;16.55;13.43;;;;;;;18.15;57.42;94086.16;4940231;28;20209;-66
2023/04/26 04:47:26;;;;;;;8.35;7.40;;;;;;;18.40;56.53;94087.59;4940218;28;20687;-64
2023/04/26 04:49:54;;;;;;;5.28;4.88;;;;;;;18.54;56.03;94082.19;4941854;28;20315;-61
2023/04/26 04:52:20;;;;;;;5.25;4.85;;;;;;;18.43;55.46;94083.97;4940143;28;20300;-62
2023/04/26 04:54:47;;;;;;;6.10;4.68;;;;;;;18.28;55.66;94086.84;4942435;28;20311;-65
2023/04/26 04:57:15;;;;;;;5.35;4.85;;;;;;;18.20;55.69;94085.81;4941225;28;20693;-66
2023/04/26 04:59:42;;;;;;;4.90;4.47;;;;;;;17.95;55.87;94079.19;4941232;28;20205;-60
2023/04/26 05:02:08;;;;;;;5.32;4.80;;;;;;;17.62;57.54;94074.88;4940475;28;20888;-60
2023/04/26 05:04:35;;;;;;;5.97;5.47;;;;;;;17.42;57.67;94081.53;4939246;28;20309;-58
2023/04/26 05:07:04;;;;;;;7.15;5.47;;;;;;;17.15;58.67;94076.72;4940780;28;20318;-63
2023/04/26 05:09:31;;;;;;;11.40;5.05;;;;;;;17.10;59.22;94085.69;4939383;28;20295;-61
2023/04/26 05:11:58;;;;;;;6.22;5.63;;;;;;;17.03;59.72;94080.22;4940332;28;20303;-62
2023/04/26 05:14:24;;;;;;;4.65;4.35;;;;;;;16.96;59.97;94082.41;4939854;28;20958;-61
2023/04/26 05:16:51;;;;;;;5.32;4.72;;;;;;;17.02;59.29;94077.75;4940178;28;20333;-64
2023/04/26 05:19:18;;;;;;;9.23;5.20;;;;;;;16.97;59.74;94078.91;4942639;28;20213;-63
2023/04/26 05:21:44;;;;;;;5.22;4.25;;;;;;;17.03;60.08;94084.53;4940848;28;20574;-65
2023/04/26 05:24:12;;;;;;;4.40;4.03;;;;;;;17.32;59.56;94085.75;4939806;28;20290;-63
2023/04/26 05:26:39;;;;;;;4.68;4.28;;;;;;;17.77;58.16;94090.91;4944319;28;21247;-64
2023/04/26 05:29:06;;;;;;;4.28;3.25;;;;;;;18.23;56.64;94085.56;4944622;28;20651;-62
2023/04/26 05:31:33;;;;;;;7.18;4.00;;;;;;;18.97;55.04;94084.72;4944034;28;20271;-60
2023/04/26 05:33:59;;;;;;;4.05;3.53;;;;;;;19.34;53.49;94087.63;4943858;28;20259;-64
2023/04/26 05:36:27;;;;;;;4.65;3.78;;;;;;;19.50;52.57;94092.38;4943220;28;20237;-64
2023/04/26 05:38:53;;;;;;;6.63;4.57;;;;;;;19.42;52.92;94089.56;4944727;28;20717;-64
2023/04/26 05:41:21;;;;;;;8.68;5.03;;;;;;;19.23;52.96;94094.63;4944044;28;20278;-67
2023/04/26 05:43:48;;;;;;;17.63;8.75;;;;;;;19.07;53.65;94089.91;4944301;28;20330;-64
2023/04/26 05:46:15;;;;;;;8.73;5.82;;;;;;;19.08;53.66;94093.28;4942340;28;20328;-66
2023/04/26 05:48:41;;;;;;;6.63;6.03;;;;;;;19.29;53.74;94102.66;4943608;28;20209;-64
2023/04/26 05:51:08;;;;;;;9.25;8.35;;;;;;;19.63;52.74;94098.09;4944694;28;20224;-66
2023/04/26 05:53:35;;;;;;;13.75;9.57;;;;;;;19.76;52.01;94104.81;4943924;28;20233;-66
2023/04/26 05:56:02;;;;;;;9.48;6.28;;;;;;;19.73;51.42;94103.31;4943382;28;20323;-67
2023/04/26 05:58:32;;;;;;;13.88;8.85;;;;;;;19.66;51.72;94086.72;4943091;28;20312;-71
2023/04/26 06:00:59;;;;;;;11.52;8.45;;;;;;;19.66;51.65;94109.94;4943637;28;22801;-65
2023/04/26 06:03:26;;;;;;;15.55;9.15;;;;;;;19.55;51.83;94105.66;4944759;28;20228;-64
2023/04/26 06:05:52;;;;;;;21.80;10.27;;;;;;;19.43;52.32;94111.81;4942661;28;20308;-64
2023/04/26 06:08:19;;;;;;;10.48;7.07;;;;;;;19.30;52.86;94111.22;4944679;28;20288;-64
2023/04/26 06:10:46;;;;;;;7.75;6.90;;;;;;;19.13;53.30;94111.78;4944286;28;20213;-66
2023/04/26 06:13:13;;;;;;;6.53;5.93;;;;;;;19.22;53.59;94111.03;4943864;28;20299;-67
2023/04/26 06:15:41;;;;;;;7.47;5.40;;;;;;;19.25;53.64;94105.63;4942171;28;20446;-67
2023/04/26 06:18:08;;;;;;;9.88;4.63;;;;;;;19.50;53.26;94117.28;4942809;28;20292;-64
2023/04/26 06:20:34;;;;;;;5.13;4.45;;;;;;;20.32;51.21;94111.06;4944412;28;20201;-65
2023/04/26 06:23:01;;;;;;;3.58;3.38;;;;;;;20.98;50.05;94113.06;4943786;28;20300;-63
2023/04/26 06:25:28;;;;;;;4.65;4.28;;;;;;;23.40;45.13;94101.34;4943453;28;20202;-68
2023/04/26 06:27:55;;;;;;;4.35;4.05;;;;;;;26.26;38.89;94092.97;4943019;28;20237;-66
2023/04/26 06:30:21;;;;;;;3.55;3.35;;;;;;;28.60;33.34;94093.75;4943239;28;20228;-69
2023/04/26 06:32:49;;;;;;;8.02;3.70;;;;;;;29.50;31.74;94094.03;4944773;28;20205;-71
2023/04/26 06:35:16;;;;;;;3.42;3.22;;;;;;;31.01;29.44;94083.47;4943564;28;20892;-64
2023/04/26 06:37:43;;;;;;;3.00;2.72;;;;;;;33.86;25.14;94080.66;4940742;28;20327;-66
2023/04/26 06:40:12;;;;;;;4.20;3.78;;;;;;;34.26;23.12;94083.69;4941394;28;20336;-64
2023/04/26 06:42:39;;;;;;;3.40;3.20;;;;;;;32.08;24.95;94090.34;4942091;28;20209;-67
2023/04/26 06:45:07;;;;;;;3.97;3.60;;;;;;;31.05;26.18;94089.94;4941385;28;20292;-64
2023/04/26 06:47:34;;;;;;;4.38;3.97;;;;;;;29.86;27.37;94098.31;4941573;28;20696;-65
2023/04/26 06:50:03;;;;;;;3.53;3.33;;;;;;;28.17;29.89;94101.47;4943433;28;20328;-64
2023/04/26 06:52:30;;;;;;;3.28;3.17;;;;;;;26.80;31.51;94106.88;4943130;28;20299;-67
2023/04/26 06:54:56;;;;;;;3.75;3.55;;;;;;;25.84;33.31;94103.72;4943417;28;20320;-59
2023/04/26 06:57:23;;;;;;;4.93;4.63;;;;;;;26.93;32.37;94101.94;4941288;28;20213;-60
2023/04/26 06:59:50;;;;;;;4.07;3.78;;;;;;;29.52;29.10;94092.03;4942771;28;20351;-61
2023/04/26 07:02:17;;;;;;;3.92;3.55;;;;;;;32.60;24.97;94091.22;4944035;28;20299;-63
2023/04/26 07:04:43;;;;;;;4.03;3.70;;;;;;;33.94;22.95;94098.81;4942108;28;20613;-64
2023/04/26 07:07:13;;;;;;;3.63;3.42;;;;;;;34.38;21.87;94098.59;4940316;28;20319;-62
2023/04/26 07:09:39;;;;;;;4.65;4.28;;;;;;;33.03;23.70;94094.84;4943162;28;20213;-62
2023/04/26 07:12:06;;;;;;;6.40;5.05;;;;;;;32.33;24.84;94101.84;4942084;28;20260;-63
2023/04/26 07:14:34;;;;;;;4.20;3.80;;;;;;;32.51;24.14;94103.78;4943047;28;20736;-67
2023/04/26 07:17:01;;;;;;;3.85;3.65;;;;;;;33.12;23.03;94093.56;4943067;28;20205;-64
2023/04/26 07:19:27;;;;;;;7.97;5.38;;;;;;;34.64;21.88;94101.94;4942152;28;20205;-62
2023/04/26 07:21:54;;;;;;;9.15;6.10;;;;;;;33.44;21.96;94086.47;4941573;28;20317;-62
2023/04/26 07:24:22;;;;;;;4.78;4.28;;;;;;;31.95;24.09;94106.94;4943143;28;20205;-64
2023/04/26 07:26:49;;;;;;;4.82;4.53;;;;;;;30.99;24.97;94109.09;4942392;28;20284;-67
2023/04/26 07:29:17;;;;;;;4.15;3.75;;;;;;;29.62;26.71;94116.09;4942691;28;20301;-68
2023/04/26 07:31:44;;;;;;;4.88;3.80;;;;;;;29.69;26.51;94108.28;4941296;28;20212;-68
2023/04/26 07:34:11;;;;;;;4.10;3.83;;;;;;;29.48;26.67;94105.69;4942100;28;20691;-62
2023/04/26 07:36:38;;;;;;;4.32;3.90;;;;;;;27.94;28.42;94103.38;4941390;28;20221;-68
2023/04/26 07:39:05;;;;;;;3.42;3.15;;;;;;;26.39;29.95;94114.94;4942411;28;20670;-69
2023/04/26 07:41:33;;;;;;;3.22;3.03;;;;;;;26.02;30.43;94117.31;4942491;28;20248;-65
2023/04/26 07:44:00;;;;;;;3.83;3.38;;;;;;;25.04;31.60;94122.63;4941397;28;20847;-67
2023/04/26 07:46:27;;;;;;;3.20;3.00;;;;;;;23.89;33.28;94121.59;4941268;28;20292;-68
2023/04/26 07:48:53;;;;;;;3.55;3.35;;;;;;;23.15;34.71;94122.88;4940155;28;20340;-63
2023/04/26 07:51:20;;;;;;;3.33;3.13;;;;;;;23.66;34.23;94119.53;4941184;28;20688;-68
2023/04/26 07:53:48;;;;;;;3.85;3.53;;;;;;;24.59;32.48;94120.44;4942462;28;20220;-64
2023/04/26 07:56:14;;;;;;;4.60;4.22;;;;;;;24.42;31.97;94124.78;4941187;28;20233;-70
2023/04/26 07:58:43;;;;;;;183.55;34.10;;;;;;;23.94;33.07;94124.56;4939824;28;20590;-68
2023/04/26 08:01:10;;;;;;;100.13;21.23;;;;;;;24.12;33.77;94125.28;4941211;28;20197;-67
2023/04/26 08:03:37;;;;;;;13.00;6.68;;;;;;;24.79;32.45;94125.34;4940625;28;20380;-66
2023/04/26 08:06:04;;;;;;;4.80;4.43;;;;;;;24.98;31.89;94123.31;4941182;28;20300;-67
2023/04/26 08:08:32;;;;;;;5.18;4.70;;;;;;;24.68;31.78;94129.06;4921098;28;20221;-64
2023/04/26 08:10:59;;;;;;;4.57;4.28;;;;;;;24.20;33.13;94127.91;4919050;28;20210;-62
2023/04/26 08:13:25;;;;;;;4.97;4.57;;;;;;;23.64;33.44;94131.03;4920964;28;20846;-66
2023/04/26 08:15:54;;;;;;;7.85;5.97;;;;;;;23.42;34.32;94137.50;4920351;28;20316;-63
2023/04/26 08:18:21;;;;;;;11.18;5.82;;;;;;;23.53;34.49;94126.91;4922549;28;20213;-68
2023/04/26 08:20:47;;;;;;;6.32;4.95;;;;;;;24.03;33.42;94132.22;4921918;28;20670;-67
2023/04/26 08:23:14;;;;;;;4.38;3.97;;;;;;;23.53;33.94;94124.31;4920924;28;20304;-64
2023/04/26 08:25:41;;;;;;;4.47;4.07;;;;;;;22.69;35.83;94126.50;4920501;28;20241;-61
2023/04/26 08:28:08;;;;;;;4.95;4.50;;;;;;;21.91;37.41;94133.00;4921604;28;20214;-63
2023/04/26 08:30:34;;;;;;;3.90;3.70;;;;;;;21.56;38.64;94134.47;4920396;28;20208;-66
2023/04/26 08:33:03;;;;;;;5.38;4.38;;;;;;;22.40;37.29;94124.91;4920006;28;20213;-64
2023/04/26 08:35:30;;;;;;;3.22;3.03;;;;;;;23.88;34.13;94122.56;4920272;28;20317;-60
2023/04/26 08:37:56;;;;;;;6.20;2.88;;;;;;;26.89;30.20;94120.69;4920660;28;20409;-61
2023/04/26 08:40:24;;;;;;;3.38;3.08;;;;;;;29.38;26.63;94114.66;4919240;28;20212;-63
2023/04/26 08:42:52;;;;;;;2.88;2.65;;;;;;;30.19;24.95;94115.03;4920717;28;20666;-66
2023/04/26 08:45:20;;;;;;;3.50;2.90;;;;;;;29.88;25.09;94112.84;4919288;28;20213;-63
2023/04/26 08:47:49;;;;;;;4.40;2.58;;;;;;;29.09;25.22;94118.22;4921333;28;20322;-67
2023/04/26 08:50:20;;;;;;;4.07;3.78;;;;;;;28.29;26.29;94120.94;4921174;28;20229;-64
2023/04/26 08:52:48;;;;;;;3.75;3.45;;;;;;;27.23;27.96;94122.91;4919916;28;20312;-67
2023/04/26 08:55:16;;;;;;;3.67;3.38;;;;;;;26.23;28.53;94125.38;4920923;28;22762;-67
2023/04/26 08:57:43;;;;;;;5.72;2.70;;;;;;;25.23;30.29;94120.72;4919582;28;20241;-62
2023/04/26 09:00:12;;;;;;;4.90;2.90;;;;;;;24.38;31.91;94130.44;4918472;28;20297;-68
2023/04/26 09:02:41;;;;;;;2.58;2.47;;;;;;;23.69;32.83;94129.63;4917761;28;20234;-65
2023/04/26 09:05:09;;;;;;;2.80;2.60;;;;;;;23.23;34.04;94125.53;4920548;28;20209;-64
2023/04/26 09:07:42;;;;;;;2.78;2.58;;;;;;;22.94;34.28;94133.56;4922391;28;20251;-61
2023/04/26 09:10:11;;;;;;;2.72;2.63;;;;;;;22.85;34.38;94129.25;4921246;28;20268;-61
2023/04/26 09:12:39;;;;;;;2.75;2.55;;;;;;;23.00;34.29;94138.16;4919901;28;20206;-65
2023/04/26 09:15:07;;;;;;;2.10;2.00;;;;;;;23.01;34.22;94129.41;4920092;28;20296;-62
2023/04/26 09:17:35;;;;;;;3.55;3.35;;;;;;;23.15;33.84;94135.03;4919981;28;20731;-67
2023/04/26 09:20:17;;;;;;;5.30;2.40;;;;;;;22.98;33.55;94145.25;4919402;28;20300;-63
2023/04/26 09:22:46;;;;;;;3.50;3.20;;;;;;;22.92;34.36;94140.66;4919063;28;20301;-62
2023/04/26 09:25:14;;;;;;;3.00;2.50;;;;;;;22.85;34.39;94142.22;4920137;28;20906;-62
2023/04/26 09:27:42;;;;;;;3.17;2.63;;;;;;;22.80;34.15;94131.47;4921275;28;20296;-64
2023/04/26 09:30:14;;;;;;;2.80;2.60;;;;;;;22.60;34.14;94140.31;4920867;28;20216;-65
2023/04/26 09:32:51;;;;;;;7.28;4.18;;;;;;;22.51;35.07;94141.22;4920481;28;20324;-60
2023/04/26 09:35:29;;;;;;;10.27;5.53;;;;;;;22.51;34.88;94136.03;4920345;28;20269;-68
2023/04/26 09:37:59;;;;;;;3.00;2.80;;;;;;;22.33;35.03;94128.22;4919656;28;20546;-61
2023/04/26 09:40:27;;;;;;;2.47;2.38;;;;;;;22.17;34.71;94144.38;4921133;28;20902;-66
2023/04/26 09:43:02;;;;;;;4.03;3.63;;;;;;;21.99;35.52;94125.38;4919934;28;20213;-66
2023/04/26 09:45:31;;;;;;;4.22;3.78;;;;;;;22.09;35.95;94133.09;4918811;28;20301;-66
2023/04/26 09:48:15;;;;;;;2.30;2.20;;;;;;;21.91;35.96;94130.44;4917010;28;20715;-64
2023/04/26 09:50:44;;;;;;;2.25;2.15;;;;;;;21.99;36.35;94122.78;4919628;28;20263;-65
2023/04/26 09:53:24;;;;;;;3.17;2.95;;;;;;;22.21;35.14;94122.44;4920975;28;20220;-65
2023/04/26 09:55:51;;;;;;;3.25;2.95;;;;;;;22.38;33.73;94123.41;4918713;28;20229;-67
2023/04/26 09:58:17;;;;;;;2.33;1.90;;;;;;;22.44;33.23;94124.63;4921473;28;20237;-67
2023/04/26 10:00:46;;;;;;;2.60;2.40;;;;;;;22.48;34.10;94131.94;4917729;28;20237;-66
2023/04/26 10:03:14;;;;;;;2.40;2.20;;;;;;;22.62;33.53;94128.03;4920693;28;20237;-63
2023/04/26 10:05:40;;;;;;;2.85;2.00;;;;;;;22.75;32.60;94123.31;4918943;28;20660;-65
2023/04/26 10:08:08;;;;;;;1.90;1.80;;;;;;;22.96;32.49;94121.28;4905845;28;20244;-66
2023/04/26 10:10:37;;;;;;;2.00;1.90;;;;;;;23.00;32.04;94116.63;4919927;28;20287;-65
2023/04/26 10:13:05;;;;;;;1.63;1.52;;;;;;;22.79;31.86;94123.84;4921712;28;20301;-61
2023/04/26 10:15:32;;;;;;;2.97;2.17;;;;;;;22.37;32.09;94125.19;4924650;28;20760;-67
2023/04/26 10:17:59;;;;;;;2.38;1.50;;;;;;;21.90;32.44;94131.38;4923777;28;20316;-66
2023/04/26 10:20:28;;;;;;;2.45;1.42;;;;;;;21.52;32.86;94112.47;4922665;28;20304;-67
2023/04/26 10:23:00;;;;;;;1.63;1.52;;;;;;;21.49;33.14;94124.84;4923010;28;20321;-66
2023/04/26 10:25:37;;;;;;;2.00;1.90;;;;;;;21.42;34.14;94111.66;4922736;28;20215;-63
2023/04/26 10:28:04;;;;;;;1.48;1.38;;;;;;;21.21;34.80;94113.63;4923346;28;20646;-65
2023/04/26 10:30:31;;;;;;;3.08;1.30;;;;;;;21.00;34.56;94121.50;4922727;28;20213;-64
2023/04/26 10:33:16;;;;;;;1.58;1.48;;;;;;;20.93;34.22;94118.63;4923016;28;20210;-61
2023/04/26 10:36:06;;;;;;;2.78;2.58;;;;;;;20.94;33.95;94122.84;4924317;28;20284;-64
2023/04/26 10:38:34;;;;;;;4.75;2.63;;;;;;;21.11;33.67;94117.94;4935973;28;20288;-65
2023/04/26 10:41:31;;;;;;;1.80;1.70;;;;;;;21.36;33.22;94118.19;4969687;28;20750;-63
2023/04/26 10:44:00;;;;;;;5.50;1.80;;;;;;;21.34;33.32;94114.13;4971101;28;20206;-64
2023/04/26 10:46:35;;;;;;;1.80;1.70;;;;;;;21.26;33.05;94106.28;4971979;28;20758;-62
2023/04/26 10:49:21;;;;;;;1.40;1.40;;;;;;;21.23;33.05;94112.53;4973716;28;20268;-63
2023/04/26 10:52:10;;;;;;;1.70;1.60;;;;;;;21.21;34.17;94114.44;4968443;28;20237;-64
2023/04/26 10:54:51;;;;;;;2.47;1.73;;;;;;;21.19;33.36;94100.00;4972266;28;20680;-63
2023/04/26 10:57:19;;;;;;;4.30;1.88;;;;;;;21.24;33.39;94098.66;4973075;28;20723;-64
2023/04/26 11:00:20;;;;;;;2.83;1.08;;;;;;;21.26;32.66;94096.75;4973437;28;20281;-63
2023/04/26 11:02:54;;;;;;;1.83;1.73;;;;;;;21.05;31.91;94108.97;4969962;28;20589;-64
2023/04/26 11:05:33;;;;;;;5.35;1.85;;;;;;;20.92;32.66;94109.25;4973722;28;20202;-64
2023/04/26 11:08:08;;;;;;;1.52;1.42;;;;;;;20.88;32.76;94102.72;4977358;28;20284;-65
2023/04/26 11:10:38;;;;;;;1.77;1.35;;;;;;;20.74;32.50;94110.91;4993122;28;20245;-64
2023/04/26 11:13:07;;;;;;;2.58;2.28;;;;;;;20.81;32.92;94106.00;4993200;28;20216;-62
2023/04/26 11:15:34;;;;;;;1.50;1.40;;;;;;;21.11;33.44;94112.78;4992710;28;20303;-65
2023/04/26 11:18:03;;;;;;;10.07;2.10;;;;;;;21.13;32.40;94106.50;4993058;28;20315;-65
2023/04/26 11:20:31;;;;;;;2.75;2.47;;;;;;;21.17;32.54;94107.88;4992226;28;20251;-63
2023/04/26 11:22:58;;;;;;;1.95;1.85;;;;;;;21.11;32.37;94112.78;4992488;28;20209;-65
2023/04/26 11:25:26;;;;;;;1.95;1.85;;;;;;;21.05;32.83;94112.34;4992507;28;20233;-66
2023/04/26 11:27:57;;;;;;;2.17;2.08;;;;;;;20.87;32.54;94106.25;4992853;28;20197;-62
2023/04/26 11:30:25;;;;;;;3.45;2.08;;;;;;;20.85;33.03;94113.31;4992284;28;20201;-64
2023/04/26 11:32:52;;;;;;;3.22;2.10;;;;;;;20.92;32.91;94109.25;4992773;28;20201;-64
2023/04/26 11:35:21;;;;;;;2.40;2.30;;;;;;;20.96;33.13;94113.19;4991696;28;20224;-66
2023/04/26 11:37:50;;;;;;;2.20;2.03;;;;;;;20.90;32.86;94118.91;4991932;28;20264;-66